createdAt,value
2023-02-24T00:00:33.821Z,10.13
2023-02-24T00:03:11.170Z,10.01
2023-02-24T00:05:44.572Z,10.00
2023-02-24T00:08:12.669Z,10.01
2023-02-24T00:10:40.664Z,10.04
2023-02-24T00:13:12.071Z,10.00
2023-02-24T00:15:40.295Z,9.93
2023-02-24T00:18:08.679Z,9.91
2023-02-24T00:20:37.427Z,9.92
2023-02-24T00:23:05.464Z,9.89
2023-02-24T00:25:33.487Z,9.92
2023-02-24T00:28:02.467Z,9.97
2023-02-24T00:30:33.101Z,9.90
2023-02-24T00:33:03.485Z,9.72
2023-02-24T00:35:32.271Z,9.69
2023-02-24T00:38:00.987Z,9.66
2023-02-24T00:40:30.850Z,9.63
2023-02-24T00:43:00.756Z,9.61
2023-02-24T00:45:30.916Z,9.61
2023-02-24T00:48:00.552Z,9.59
2023-02-24T00:50:28.484Z,9.60
2023-02-24T00:52:56.479Z,9.64
2023-02-24T00:55:27.826Z,9.65
2023-02-24T00:57:56.367Z,9.65
2023-02-24T01:00:24.525Z,9.61
2023-02-24T01:02:52.676Z,9.54
2023-02-24T01:05:22.044Z,9.55
2023-02-24T01:07:50.041Z,9.57
2023-02-24T01:10:18.523Z,9.56
2023-02-24T01:12:51.187Z,9.55
2023-02-24T01:15:22.312Z,9.52
2023-02-24T01:17:50.469Z,9.50
2023-02-24T01:20:19.702Z,9.52
2023-02-24T01:22:53.069Z,9.47
2023-02-24T01:25:21.711Z,9.43
2023-02-24T01:27:50.684Z,9.41
2023-02-24T01:30:18.959Z,9.41
2023-02-24T01:32:48.292Z,9.41
2023-02-24T01:35:17.738Z,9.40
2023-02-24T01:37:46.369Z,9.38
2023-02-24T01:40:21.820Z,9.33
2023-02-24T01:42:50.826Z,9.32
2023-02-24T01:45:25.193Z,9.34
2023-02-24T01:47:54.718Z,9.39
2023-02-24T01:50:26.174Z,9.39
2023-02-24T01:52:58.860Z,9.36
2023-02-24T01:55:32.180Z,9.33
2023-02-24T01:58:05.309Z,9.32
2023-02-24T02:00:47.072Z,9.33
2023-02-24T02:03:23.553Z,9.31
2023-02-24T02:05:51.922Z,9.29
2023-02-24T02:08:21.792Z,9.27
2023-02-24T02:10:57.998Z,9.25
2023-02-24T02:13:27.733Z,9.21
2023-02-24T02:16:07.816Z,9.21
2023-02-24T02:18:48.776Z,9.19
2023-02-24T02:21:59.633Z,9.13
2023-02-24T02:24:37.793Z,9.06
2023-02-24T02:27:35.502Z,9.00
2023-02-24T02:30:34.583Z,8.99
2023-02-24T02:34:05.461Z,8.94
2023-02-24T02:36:39.950Z,8.92
2023-02-24T02:39:15.845Z,8.90
2023-02-24T02:41:53.802Z,8.86
2023-02-24T02:44:26.743Z,8.79
2023-02-24T02:46:58.738Z,8.84
2023-02-24T02:49:33.180Z,8.86
2023-02-24T02:52:07.515Z,8.86
2023-02-24T02:54:45.500Z,8.81
2023-02-24T02:57:20.527Z,8.80
2023-02-24T02:59:54.650Z,8.75
2023-02-24T03:02:28.497Z,8.73
2023-02-24T03:05:04.949Z,8.70
2023-02-24T03:07:40.479Z,8.66
2023-02-24T03:10:17.751Z,8.64
2023-02-24T03:12:48.873Z,8.60
2023-02-24T03:15:21.073Z,8.62
2023-02-24T03:17:56.027Z,8.62
2023-02-24T03:20:32.739Z,8.59
2023-02-24T03:23:04.887Z,8.60
2023-02-24T03:25:44.607Z,8.63
2023-02-24T03:28:19.333Z,8.65
2023-02-24T03:30:53.446Z,8.65
2023-02-24T03:33:26.423Z,8.62
2023-02-24T03:36:01.706Z,8.58
2023-02-24T03:38:33.887Z,8.50
2023-02-24T03:41:02.682Z,8.51
2023-02-24T03:43:35.901Z,8.50
2023-02-24T03:46:06.696Z,8.45
2023-02-24T03:48:39.232Z,8.46
2023-02-24T03:51:09.832Z,8.45
2023-02-24T03:53:58.077Z,8.45
2023-02-24T03:56:40.460Z,8.45
2023-02-24T03:59:18.754Z,8.40
2023-02-24T04:01:56.160Z,8.38
2023-02-24T04:04:30.035Z,8.35
2023-02-24T04:07:16.240Z,8.30
2023-02-24T04:09:51.093Z,8.30
2023-02-24T04:12:24.675Z,8.29
2023-02-24T04:14:59.618Z,8.32
2023-02-24T04:17:32.655Z,8.34
2023-02-24T04:20:12.879Z,8.36
2023-02-24T04:22:50.158Z,8.40
2023-02-24T04:25:24.463Z,8.43
2023-02-24T04:27:55.608Z,8.49
2023-02-24T04:30:26.759Z,8.54
2023-02-24T04:32:56.558Z,8.53
2023-02-24T04:35:27.836Z,8.53
2023-02-24T04:37:58.876Z,8.51
2023-02-24T04:40:27.915Z,8.47
2023-02-24T04:42:56.315Z,8.40
2023-02-24T04:45:26.792Z,8.26
2023-02-24T04:48:01.062Z,8.36
2023-02-24T04:50:31.049Z,8.40
2023-02-24T04:53:02.639Z,8.39
2023-02-24T04:55:33.347Z,8.38
2023-02-24T04:58:02.019Z,8.40
2023-02-24T05:00:35.507Z,8.34
2023-02-24T05:03:05.737Z,8.28
2023-02-24T05:05:34.322Z,8.26
2023-02-24T05:08:06.498Z,8.23
2023-02-24T05:10:38.897Z,8.24
2023-02-24T05:13:09.174Z,8.23
2023-02-24T05:15:41.845Z,8.25
2023-02-24T05:18:14.111Z,8.23
2023-02-24T05:21:02.493Z,8.20
2023-02-24T05:23:34.494Z,8.14
2023-02-24T05:26:08.539Z,8.06
2023-02-24T05:28:37.071Z,8.11
2023-02-24T05:31:08.509Z,8.16
2023-02-24T05:33:37.788Z,8.13
2023-02-24T05:36:08.707Z,8.10
2023-02-24T05:38:38.995Z,8.05
2023-02-24T05:41:08.366Z,8.03
2023-02-24T05:43:39.301Z,8.01
2023-02-24T05:46:07.496Z,7.97
2023-02-24T05:48:36.033Z,7.95
2023-02-24T05:51:08.229Z,7.89
2023-02-24T05:53:41.313Z,7.91
2023-02-24T05:56:09.756Z,7.91
2023-02-24T05:58:39.495Z,7.87
2023-02-24T06:01:16.278Z,7.84
2023-02-24T06:03:48.025Z,7.83
2023-02-24T06:06:17.821Z,7.82
2023-02-24T06:08:50.691Z,7.79
2023-02-24T06:11:21.126Z,7.80
2023-02-24T06:13:49.392Z,7.86
2023-02-24T06:16:18.858Z,7.88
2023-02-24T06:18:49.393Z,7.83
2023-02-24T06:21:17.564Z,7.80
2023-02-24T06:23:47.544Z,7.74
2023-02-24T06:26:19.495Z,7.68
2023-02-24T06:28:48.166Z,7.68
2023-02-24T06:31:16.473Z,7.60
2023-02-24T06:33:44.445Z,7.66
2023-02-24T06:36:14.378Z,7.73
2023-02-24T06:38:42.679Z,7.79
2023-02-24T06:41:12.039Z,7.65
2023-02-24T06:43:40.784Z,7.46
2023-02-24T06:46:09.448Z,7.45
2023-02-24T06:48:38.015Z,7.29
2023-02-24T06:51:07.694Z,7.36
2023-02-24T06:53:36.050Z,7.43
2023-02-24T06:56:14.770Z,7.52
2023-02-24T06:58:45.329Z,7.60
2023-02-24T07:01:14.092Z,7.64
2023-02-24T07:03:47.954Z,7.73
2023-02-24T07:06:23.947Z,7.78
2023-02-24T07:08:53.456Z,7.75
2023-02-24T07:11:22.413Z,7.78
2023-02-24T07:13:54.479Z,7.83
2023-02-24T07:16:25.795Z,7.85
2023-02-24T07:18:56.659Z,7.59
2023-02-24T07:21:26.852Z,7.21
2023-02-24T07:23:58.772Z,7.01
2023-02-24T07:26:30.368Z,7.14
2023-02-24T07:29:04.277Z,7.45
2023-02-24T07:31:34.565Z,7.71
2023-02-24T07:34:02.697Z,7.93
2023-02-24T07:36:34.983Z,8.08
2023-02-24T07:39:03.896Z,8.11
2023-02-24T07:41:31.982Z,8.18
2023-02-24T07:44:03.316Z,8.32
2023-02-24T07:46:32.440Z,8.42
2023-02-24T07:49:01.580Z,8.44
2023-02-24T07:51:29.893Z,8.42
2023-02-24T07:54:00.295Z,8.37
2023-02-24T07:56:31.088Z,8.14
2023-02-24T07:59:02.161Z,8.25
2023-02-24T08:01:38.868Z,8.49
2023-02-24T08:04:09.140Z,8.45
2023-02-24T08:06:39.365Z,8.44
2023-02-24T08:09:18.286Z,8.47
2023-02-24T08:11:49.220Z,8.50
2023-02-24T08:14:23.566Z,8.60
2023-02-24T08:16:59.352Z,8.65
2023-02-24T08:19:32.868Z,8.57
2023-02-24T08:22:19.251Z,8.45
2023-02-24T08:24:50.223Z,8.50
2023-02-24T08:27:20.209Z,8.63
2023-02-24T08:30:01.687Z,8.84
2023-02-24T08:32:33.966Z,9.01
2023-02-24T08:35:04.852Z,9.10
2023-02-24T08:37:39.844Z,9.29
2023-02-24T08:40:29.741Z,9.41
2023-02-24T08:42:58.744Z,9.48
2023-02-24T08:45:33.473Z,9.60
2023-02-24T08:48:13.834Z,9.69
2023-02-24T08:50:45.639Z,9.75
2023-02-24T08:53:19.201Z,9.69
2023-02-24T08:55:51.794Z,9.74
2023-02-24T08:58:27.052Z,9.85
2023-02-24T09:00:59.371Z,9.84
2023-02-24T09:03:29.754Z,9.89
2023-02-24T09:06:04.590Z,9.77
2023-02-24T09:08:34.377Z,9.70
2023-02-24T09:11:08.045Z,9.63
2023-02-24T09:13:37.389Z,9.74
2023-02-24T09:16:16.359Z,9.84
2023-02-24T09:18:44.743Z,9.89
2023-02-24T09:21:31.348Z,9.88
2023-02-24T09:24:00.431Z,9.87
2023-02-24T09:26:32.686Z,9.90
2023-02-24T09:29:00.775Z,9.89
2023-02-24T09:31:40.843Z,9.75
2023-02-24T09:34:10.768Z,9.58
2023-02-24T09:36:45.021Z,9.56
2023-02-24T09:39:15.630Z,9.54
2023-02-24T09:41:56.838Z,9.64
2023-02-24T09:44:34.962Z,9.80
2023-02-24T09:47:14.060Z,9.90
2023-02-24T09:49:48.771Z,10.00
2023-02-24T09:52:19.508Z,10.07
2023-02-24T09:55:09.747Z,10.17
2023-02-24T09:58:02.904Z,10.11
2023-02-24T10:00:33.658Z,10.20
2023-02-24T10:03:19.782Z,10.20
2023-02-24T10:05:58.966Z,10.29
2023-02-24T10:08:34.521Z,9.98
2023-02-24T10:11:08.144Z,10.10
2023-02-24T10:13:40.283Z,10.23
2023-02-24T10:16:12.318Z,10.28
2023-02-24T10:18:46.956Z,10.36
2023-02-24T10:21:30.753Z,10.37
2023-02-24T10:24:14.446Z,10.50
2023-02-24T10:27:00.698Z,10.39
2023-02-24T10:29:50.881Z,10.88
2023-02-24T10:32:24.246Z,10.94
2023-02-24T10:34:54.497Z,10.96
2023-02-24T10:37:29.077Z,10.91
2023-02-24T10:39:59.600Z,10.97
2023-02-24T10:42:31.793Z,11.06
2023-02-24T10:45:18.112Z,11.07
2023-02-24T10:47:56.829Z,11.02
2023-02-24T10:50:32.236Z,11.11
2023-02-24T10:53:34.510Z,11.26
2023-02-24T10:56:23.907Z,11.39
2023-02-24T10:59:20.734Z,11.51
2023-02-24T11:02:01.169Z,11.51
2023-02-24T11:04:53.941Z,11.59
2023-02-24T11:07:33.770Z,11.71
2023-02-24T11:10:12.359Z,11.81
2023-02-24T11:13:09.272Z,11.79
2023-02-24T11:16:00.891Z,11.77
2023-02-24T11:18:31.173Z,11.67
2023-02-24T11:21:01.469Z,11.75
2023-02-24T11:23:34.985Z,11.89
2023-02-24T11:26:07.978Z,12.00
2023-02-24T11:28:48.984Z,12.04
2023-02-24T11:31:29.868Z,12.07
2023-02-24T11:34:06.176Z,12.06
2023-02-24T11:36:41.348Z,12.15
2023-02-24T11:39:47.463Z,12.18
2023-02-24T11:42:20.806Z,12.13
2023-02-24T11:44:56.620Z,12.27
2023-02-24T11:47:30.163Z,12.31
2023-02-24T11:50:14.760Z,12.31
2023-02-24T11:52:47.008Z,12.34
2023-02-24T11:55:27.418Z,12.46
2023-02-24T11:58:01.398Z,12.51
2023-02-24T12:00:33.855Z,12.60
2023-02-24T12:03:09.514Z,12.73
2023-02-24T12:05:42.099Z,12.78
2023-02-24T12:08:22.531Z,12.83
2023-02-24T12:10:59.658Z,12.94
2023-02-24T12:13:38.060Z,13.03
2023-02-24T12:16:12.035Z,13.10
2023-02-24T12:18:44.520Z,13.07
2023-02-24T12:21:17.786Z,13.12
2023-02-24T12:23:48.020Z,13.21
2023-02-24T12:26:25.150Z,13.29
2023-02-24T12:29:16.752Z,13.32
2023-02-24T12:31:57.228Z,13.36
2023-02-24T12:34:37.788Z,13.37
2023-02-24T12:37:36.027Z,13.37
2023-02-24T12:40:17.725Z,13.32
2023-02-24T12:42:58.686Z,13.19
2023-02-24T12:45:39.662Z,13.20
2023-02-24T12:48:16.323Z,13.22
2023-02-24T12:50:53.047Z,13.38
2023-02-24T12:53:24.682Z,13.54
2023-02-24T12:56:04.112Z,13.43
2023-02-24T12:58:37.434Z,13.47
2023-02-24T13:01:14.626Z,13.51
2023-02-24T13:04:22.900Z,13.56
2023-02-24T13:07:02.452Z,13.67
2023-02-24T13:09:45.966Z,13.72
2023-02-24T13:12:18.420Z,13.85
2023-02-24T13:14:48.759Z,13.89
2023-02-24T13:17:20.449Z,13.90
2023-02-24T13:19:52.214Z,14.01
2023-02-24T13:22:27.855Z,14.07
2023-02-24T13:25:13.830Z,13.94
2023-02-24T13:27:44.243Z,13.98
2023-02-24T13:30:29.747Z,14.14
2023-02-24T13:33:04.143Z,14.22
2023-02-24T13:35:35.641Z,14.34
2023-02-24T13:38:22.800Z,14.45
2023-02-24T13:40:50.980Z,14.59
2023-02-24T13:43:28.174Z,14.77
2023-02-24T13:46:00.443Z,14.80
2023-02-24T13:48:55.184Z,14.75
2023-02-24T13:51:49.761Z,14.85
2023-02-24T13:54:41.957Z,14.80
2023-02-24T13:57:31.027Z,14.73
2023-02-24T14:00:11.468Z,14.86
2023-02-24T14:02:45.188Z,14.60
2023-02-24T14:05:21.298Z,14.66
2023-02-24T14:07:53.175Z,14.78
2023-02-24T14:10:24.987Z,14.93
2023-02-24T14:13:04.150Z,14.98
2023-02-24T14:15:32.839Z,14.90
2023-02-24T14:18:04.672Z,14.72
2023-02-24T14:20:33.543Z,14.53
2023-02-24T14:23:02.705Z,14.45
2023-02-24T14:25:38.779Z,14.24
2023-02-24T14:28:07.289Z,14.27
2023-02-24T14:30:38.488Z,14.24
2023-02-24T14:33:21.387Z,14.13
2023-02-24T14:35:49.840Z,14.15
2023-02-24T14:38:30.288Z,14.02
2023-02-24T14:40:58.468Z,13.94
2023-02-24T14:43:26.675Z,13.93
2023-02-24T14:45:57.591Z,13.95
2023-02-24T14:48:28.651Z,13.96
2023-02-24T14:51:02.950Z,13.98
2023-02-24T14:53:34.334Z,13.95
2023-02-24T14:56:06.187Z,13.89
2023-02-24T14:58:39.702Z,13.89
2023-02-24T15:01:19.339Z,13.80
2023-02-24T15:03:50.767Z,13.71
2023-02-24T15:06:24.984Z,13.77
2023-02-24T15:08:59.335Z,13.81
2023-02-24T15:11:29.802Z,13.84
2023-02-24T15:14:00.722Z,13.80
2023-02-24T15:16:34.442Z,13.75
2023-02-24T15:19:04.333Z,13.76
2023-02-24T15:21:33.974Z,13.64
2023-02-24T15:24:03.655Z,13.61
2023-02-24T15:26:33.440Z,13.64
2023-02-24T15:29:03.095Z,13.62
2023-02-24T15:31:31.798Z,13.62
2023-02-24T15:34:02.144Z,13.69
2023-02-24T15:36:33.907Z,13.64
2023-02-24T15:39:04.912Z,13.68
2023-02-24T15:41:41.057Z,13.61
2023-02-24T15:44:26.020Z,13.53
2023-02-24T15:46:54.415Z,13.53
2023-02-24T15:49:22.460Z,13.52
2023-02-24T15:51:53.905Z,13.51
2023-02-24T15:54:29.226Z,13.47
2023-02-24T15:56:59.077Z,13.46
2023-02-24T15:59:27.326Z,13.42
2023-02-24T16:01:55.420Z,13.46
2023-02-24T16:04:24.146Z,13.47
2023-02-24T16:06:55.916Z,13.41
2023-02-24T16:09:32.128Z,13.39
2023-02-24T16:12:01.164Z,13.38
2023-02-24T16:14:29.176Z,13.39
2023-02-24T16:16:57.292Z,13.39
2023-02-24T16:19:25.667Z,13.41
2023-02-24T16:21:55.045Z,13.44
2023-02-24T16:24:23.025Z,13.49
2023-02-24T16:26:51.219Z,13.48
2023-02-24T16:29:19.287Z,13.39
2023-02-24T16:31:47.501Z,13.34
2023-02-24T16:34:16.907Z,13.28
2023-02-24T16:36:45.311Z,13.21
2023-02-24T16:39:15.102Z,13.19
2023-02-24T16:41:43.092Z,13.11
2023-02-24T16:44:11.470Z,13.06
2023-02-24T16:46:42.261Z,13.03
2023-02-24T16:49:14.829Z,13.03
2023-02-24T16:51:42.842Z,12.89
2023-02-24T16:54:10.946Z,12.74
2023-02-24T16:56:40.340Z,12.61
2023-02-24T16:59:08.307Z,12.47
2023-02-24T17:01:36.360Z,12.44
2023-02-24T17:04:09.750Z,12.47
2023-02-24T17:06:37.775Z,12.48
2023-02-24T17:09:05.873Z,12.44
2023-02-24T17:11:34.000Z,12.39
2023-02-24T17:14:03.343Z,12.35
2023-02-24T17:16:31.545Z,12.33
2023-02-24T17:19:00.226Z,12.29
2023-02-24T17:21:29.473Z,12.28
2023-02-24T17:23:59.152Z,12.18
2023-02-24T17:26:27.732Z,12.19
2023-02-24T17:28:55.815Z,12.19
2023-02-24T17:31:28.416Z,12.24
2023-02-24T17:33:56.462Z,12.30
2023-02-24T17:36:24.549Z,12.30
2023-02-24T17:38:53.076Z,12.32
2023-02-24T17:41:21.066Z,12.21
2023-02-24T17:43:51.732Z,12.24
2023-02-24T17:46:20.212Z,12.27
2023-02-24T17:48:49.687Z,12.29
2023-02-24T17:51:19.766Z,12.29
2023-02-24T17:53:47.933Z,12.30
2023-02-24T17:56:15.936Z,12.23
2023-02-24T17:58:43.919Z,12.22
2023-02-24T18:01:12.664Z,12.21
2023-02-24T18:03:40.819Z,12.15
2023-02-24T18:06:12.214Z,12.13
2023-02-24T18:08:41.292Z,12.07
2023-02-24T18:11:12.417Z,12.09
2023-02-24T18:13:40.405Z,12.04
2023-02-24T18:16:11.102Z,12.00
2023-02-24T18:18:39.588Z,12.01
2023-02-24T18:21:08.612Z,11.95
2023-02-24T18:23:40.454Z,11.89
2023-02-24T18:26:10.285Z,11.95
2023-02-24T18:28:38.665Z,11.98
2023-02-24T18:31:12.355Z,11.98
2023-02-24T18:33:40.599Z,11.99
2023-02-24T18:36:10.226Z,11.79
2023-02-24T18:38:39.696Z,11.58
2023-02-24T18:41:09.590Z,11.41
2023-02-24T18:43:38.682Z,11.29
2023-02-24T18:46:09.057Z,11.31
2023-02-24T18:48:37.637Z,11.36
2023-02-24T18:51:05.885Z,11.25
2023-02-24T18:53:36.872Z,11.20
2023-02-24T18:56:08.858Z,11.33
2023-02-24T18:58:38.634Z,11.35
2023-02-24T19:01:12.608Z,11.08
2023-02-24T19:03:41.057Z,10.94
2023-02-24T19:06:09.091Z,10.81
2023-02-24T19:08:37.049Z,10.82
2023-02-24T19:11:10.659Z,10.83
2023-02-24T19:13:38.764Z,10.89
2023-02-24T19:16:07.965Z,10.85
2023-02-24T19:18:36.463Z,10.91
2023-02-24T19:21:06.580Z,10.85
2023-02-24T19:23:34.868Z,10.81
2023-02-24T19:26:03.074Z,10.85
2023-02-24T19:28:32.445Z,10.94
2023-02-24T19:31:00.534Z,11.05
2023-02-24T19:33:28.605Z,11.14
2023-02-24T19:35:59.883Z,11.10
2023-02-24T19:38:28.488Z,11.05
2023-02-24T19:40:59.001Z,10.96
2023-02-24T19:43:27.430Z,10.99
2023-02-24T19:45:56.820Z,11.04
2023-02-24T19:48:24.856Z,11.12
2023-02-24T19:50:52.848Z,11.16
2023-02-24T19:53:20.771Z,11.18
2023-02-24T19:55:51.669Z,11.22
2023-02-24T19:58:19.738Z,11.30
2023-02-24T20:00:48.458Z,11.33
2023-02-24T20:03:17.961Z,11.21
2023-02-24T20:05:45.925Z,11.25
2023-02-24T20:08:13.881Z,10.96
2023-02-24T20:10:41.826Z,11.10
2023-02-24T20:13:09.825Z,11.06
2023-02-24T20:15:37.878Z,11.08
2023-02-24T20:18:08.824Z,11.12
2023-02-24T20:20:38.442Z,11.17
2023-02-24T20:23:06.428Z,11.27
2023-02-24T20:25:34.411Z,11.26
2023-02-24T20:28:03.011Z,11.24
2023-02-24T20:30:31.042Z,11.19
2023-02-24T20:32:59.632Z,11.17
2023-02-24T20:35:28.554Z,11.17
2023-02-24T20:37:57.879Z,11.11
2023-02-24T20:40:25.855Z,11.06
2023-02-24T20:42:53.847Z,11.04
2023-02-24T20:45:21.953Z,11.02
2023-02-24T20:47:51.064Z,10.83
2023-02-24T20:50:19.265Z,10.52
2023-02-24T20:52:47.289Z,10.24
2023-02-24T20:55:16.817Z,10.18
2023-02-24T20:57:44.797Z,10.02
2023-02-24T21:00:15.506Z,10.06
2023-02-24T21:02:44.105Z,9.89
2023-02-24T21:05:20.427Z,9.85
2023-02-24T21:07:50.737Z,9.89
2023-02-24T21:10:22.504Z,9.96
2023-02-24T21:12:52.540Z,10.07
2023-02-24T21:15:21.823Z,10.16
2023-02-24T21:17:49.784Z,10.12
2023-02-24T21:20:17.781Z,10.19
2023-02-24T21:22:45.793Z,10.11
2023-02-24T21:25:13.779Z,10.14
2023-02-24T21:27:43.136Z,10.07
2023-02-24T21:30:12.334Z,9.99
2023-02-24T21:32:40.318Z,9.91
2023-02-24T21:35:09.396Z,9.86
2023-02-24T21:37:37.356Z,9.85
2023-02-24T21:40:11.107Z,9.90
2023-02-24T21:42:41.962Z,10.09
2023-02-24T21:45:12.216Z,10.12
2023-02-24T21:47:41.005Z,10.24
2023-02-24T21:50:12.065Z,10.34
2023-02-24T21:52:40.529Z,10.37
2023-02-24T21:55:09.689Z,10.38
2023-02-24T21:57:41.302Z,10.38
2023-02-24T22:00:18.305Z,10.43
2023-02-24T22:02:47.503Z,10.39
2023-02-24T22:05:16.696Z,10.40
2023-02-24T22:07:45.038Z,10.34
2023-02-24T22:10:14.417Z,10.34
2023-02-24T22:12:42.386Z,10.30
2023-02-24T22:15:12.662Z,10.34
2023-02-24T22:17:41.809Z,10.32
2023-02-24T22:20:13.692Z,10.38
2023-02-24T22:22:43.426Z,10.37
2023-02-24T22:25:12.006Z,10.43
2023-02-24T22:27:40.068Z,10.45
2023-02-24T22:30:09.572Z,10.41
2023-02-24T22:32:38.972Z,10.32
2023-02-24T22:35:07.877Z,10.13
2023-02-24T22:37:35.911Z,10.06
2023-02-24T22:40:03.947Z,9.90
2023-02-24T22:42:31.954Z,9.84
2023-02-24T22:45:00.270Z,9.94
2023-02-24T22:47:28.266Z,10.06
2023-02-24T22:49:57.645Z,10.00
2023-02-24T22:52:26.803Z,9.69
2023-02-24T22:54:55.562Z,9.65
2023-02-24T22:57:23.523Z,9.61
2023-02-24T22:59:51.466Z,9.34
2023-02-24T23:02:19.458Z,9.15
2023-02-24T23:04:47.492Z,9.14
2023-02-24T23:07:16.862Z,9.07
2023-02-24T23:09:52.937Z,8.96
2023-02-24T23:12:22.301Z,8.83
2023-02-24T23:14:50.332Z,8.81
2023-02-24T23:17:18.355Z,8.89
2023-02-24T23:19:46.320Z,8.88
2023-02-24T23:22:14.783Z,8.97
2023-02-24T23:24:44.736Z,8.96
2023-02-24T23:27:12.736Z,8.81
2023-02-24T23:29:40.977Z,8.84
2023-02-24T23:32:09.051Z,8.89
2023-02-24T23:34:37.099Z,8.89
2023-02-24T23:37:05.804Z,9.05
2023-02-24T23:39:33.942Z,9.20
2023-02-24T23:42:03.350Z,9.27
2023-02-24T23:44:31.374Z,9.25
2023-02-24T23:47:01.234Z,9.29
2023-02-24T23:49:42.402Z,9.26
2023-02-24T23:52:14.293Z,9.21
2023-02-24T23:54:42.252Z,9.00
2023-02-24T23:57:11.609Z,8.79
2023-02-24T23:59:39.593Z,8.59
